UAL23 KEWR-EIDW
Flight info
| Callsign | UAL23 |
|---|---|
| Flight time | N/A |
| Altitude | 35000 |
| Route | MERIT DCT HFD DCT PUT DCT BOS DCT BRADD N261B NICSO/M082F370 DCT 48N050W 50N040W 52N030W 53N020W DCT MALOT DCT GISTI/N0463F370 DCT OSGAR OSGAR3R |
| Aircraft | B772/H-SDE2E3FGHIJ5LORVWXY/LB1D1 |
Departure
| Time | 2026-04-24 12:45 |
|---|---|
| Airport | Newark Liberty International Airport (KEWR) |
Arrival
| Time | N/A |
|---|---|
| Airport | Dublin Airport (EIDW) |
| Time | Latitude | Longitude | Altitude | Speed | Heading |
|---|---|---|---|---|---|
| 2026-04-24 12:18 | 40.69145 | -74.17372 | 24 ft | 0 kts | 326° |
| 2026-04-24 12:37 | 40.69141 | -74.17368 | 21 ft | 4 kts | 326° |
| 2026-04-24 12:37 | 40.69119 | -74.17348 | 22 ft | 4 kts | 316° |
| 2026-04-24 12:37 | 40.69107 | -74.17323 | 26 ft | 4 kts | 285° |
| 2026-04-24 12:37 | 40.69102 | -74.17289 | 26 ft | 4 kts | 271° |
| 2026-04-24 12:38 | 40.69104 | -74.17254 | 26 ft | 4 kts | 252° |
| 2026-04-24 12:38 | 40.69116 | -74.17224 | 26 ft | 4 kts | 217° |
| 2026-04-24 12:38 | 40.69123 | -74.17218 | 25 ft | 1 kts | 206° |
| 2026-04-24 12:39 | 40.69115 | -74.17223 | 24 ft | 4 kts | 206° |
| 2026-04-24 12:40 | 40.69075 | -74.17249 | 21 ft | 9 kts | 206° |
| 2026-04-24 12:40 | 40.69011 | -74.17290 | 23 ft | 11 kts | 206° |
| 2026-04-24 12:40 | 40.68933 | -74.17341 | 25 ft | 14 kts | 206° |
| 2026-04-24 12:40 | 40.68836 | -74.17403 | 26 ft | 17 kts | 206° |
| 2026-04-24 12:41 | 40.68726 | -74.17473 | 28 ft | 18 kts | 206° |
| 2026-04-24 12:41 | 40.68605 | -74.17551 | 27 ft | 21 kts | 206° |
| 2026-04-24 12:41 | 40.68464 | -74.17642 | 28 ft | 24 kts | 205° |
| 2026-04-24 12:41 | 40.68302 | -74.17742 | 26 ft | 26 kts | 205° |
| 2026-04-24 12:42 | 40.68136 | -74.17846 | 25 ft | 26 kts | 206° |
| 2026-04-24 12:42 | 40.67985 | -74.17942 | 27 ft | 24 kts | 206° |
| 2026-04-24 12:42 | 40.67843 | -74.18034 | 29 ft | 19 kts | 206° |
| 2026-04-24 12:42 | 40.67763 | -74.18080 | 27 ft | 9 kts | 187° |
| 2026-04-24 12:43 | 40.67718 | -74.18024 | 29 ft | 10 kts | 116° |
| 2026-04-24 12:43 | 40.67688 | -74.17945 | 26 ft | 10 kts | 117° |
| 2026-04-24 12:43 | 40.67664 | -74.17881 | 24 ft | 1 kts | 104° |
| 2026-04-24 12:43 | 40.67670 | -74.17859 | 26 ft | 4 kts | 60° |
| 2026-04-24 12:44 | 40.67683 | -74.17849 | 25 ft | 0 kts | 24° |
| 2026-04-24 12:44 | 40.67829 | -74.17757 | 22 ft | 58 kts | 25° |
| 2026-04-24 12:44 | 40.68415 | -74.17391 | 29 ft | 127 kts | 26° |
| 2026-04-24 12:44 | 40.69399 | -74.16767 | 38 ft | 183 kts | 22° |
| 2026-04-24 12:45 | 40.70569 | -74.16004 | 717 ft | 187 kts | 24° |
| 2026-04-24 12:45 | 40.71704 | -74.15268 | 1869 ft | 176 kts | 23° |
| 2026-04-24 12:45 | 40.72796 | -74.14612 | 2549 ft | 172 kts | 24° |
| 2026-04-24 12:45 | 40.73775 | -74.13590 | 2610 ft | 192 kts | 52° |
| 2026-04-24 12:46 | 40.74475 | -74.12055 | 2777 ft | 204 kts | 53° |
| 2026-04-24 12:46 | 40.75312 | -74.10419 | 2901 ft | 222 kts | 50° |
| 2026-04-24 12:46 | 40.76258 | -74.08701 | 3059 ft | 240 kts | 49° |
| 2026-04-24 12:46 | 40.77297 | -74.06893 | 3411 ft | 253 kts | 48° |
| 2026-04-24 12:47 | 40.78383 | -74.05072 | 3882 ft | 259 kts | 46° |
| 2026-04-24 12:47 | 40.79532 | -74.03207 | 4391 ft | 265 kts | 44° |
| 2026-04-24 12:47 | 40.80723 | -74.01318 | 4921 ft | 270 kts | 43° |
| 2026-04-24 12:47 | 40.81927 | -73.99429 | 5600 ft | 270 kts | 41° |
| 2026-04-24 12:48 | 40.83154 | -73.97532 | 6143 ft | 274 kts | 41° |
| 2026-04-24 12:48 | 40.84405 | -73.95618 | 6679 ft | 276 kts | 40° |
| 2026-04-24 12:48 | 40.85667 | -73.93697 | 7266 ft | 278 kts | 39° |
| 2026-04-24 12:48 | 40.86933 | -73.91776 | 7886 ft | 278 kts | 39° |
| 2026-04-24 12:49 | 40.88214 | -73.89838 | 8431 ft | 282 kts | 38° |
| 2026-04-24 12:49 | 40.89510 | -73.87881 | 8977 ft | 285 kts | 38° |
| 2026-04-24 12:49 | 40.90817 | -73.85907 | 9585 ft | 285 kts | 38° |
| 2026-04-24 12:49 | 40.92133 | -73.83924 | 10066 ft | 290 kts | 37° |
| 2026-04-24 12:50 | 40.93496 | -73.81879 | 10297 ft | 305 kts | 38° |
| 2026-04-24 12:50 | 40.94949 | -73.79711 | 10430 ft | 324 kts | 38° |
| 2026-04-24 12:50 | 40.96487 | -73.77410 | 10592 ft | 344 kts | 39° |
| 2026-04-24 12:50 | 40.98103 | -73.74979 | 10855 ft | 359 kts | 39° |
| 2026-04-24 12:51 | 40.99766 | -73.72460 | 11364 ft | 367 kts | 39° |
| 2026-04-24 12:51 | 41.01454 | -73.69891 | 12052 ft | 371 kts | 39° |
| 2026-04-24 12:51 | 41.03147 | -73.67307 | 12822 ft | 374 kts | 39° |
| 2026-04-24 12:51 | 41.04861 | -73.64699 | 13583 ft | 377 kts | 38° |
| 2026-04-24 12:52 | 41.06603 | -73.62056 | 14128 ft | 384 kts | 38° |
| 2026-04-24 12:52 | 41.07774 | -73.60280 | 14516 ft | 388 kts | 38° |
| 2026-04-24 12:52 | 41.10161 | -73.56652 | 15375 ft | 393 kts | 38° |
| 2026-04-24 12:52 | 41.11963 | -73.53910 | 16006 ft | 396 kts | 38° |
| 2026-04-24 12:53 | 41.13165 | -73.52079 | 16395 ft | 399 kts | 38° |
| 2026-04-24 12:53 | 41.14999 | -73.49285 | 16989 ft | 404 kts | 38° |
| 2026-04-24 12:53 | 41.16852 | -73.46460 | 17568 ft | 408 kts | 38° |
| 2026-04-24 12:53 | 41.18726 | -73.43601 | 18150 ft | 412 kts | 38° |
| 2026-04-24 12:54 | 41.20614 | -73.40713 | 18718 ft | 415 kts | 38° |
| 2026-04-24 12:54 | 41.22499 | -73.37821 | 19354 ft | 414 kts | 38° |
| 2026-04-24 12:54 | 41.24385 | -73.34933 | 19914 ft | 415 kts | 38° |
| 2026-04-24 12:54 | 41.26289 | -73.32019 | 20389 ft | 419 kts | 38° |
| 2026-04-24 12:55 | 41.28205 | -73.29083 | 20920 ft | 422 kts | 38° |
| 2026-04-24 12:55 | 41.30133 | -73.26122 | 21409 ft | 425 kts | 38° |
| 2026-04-24 12:55 | 41.32070 | -73.23145 | 21945 ft | 427 kts | 38° |
| 2026-04-24 12:55 | 41.34018 | -73.20150 | 22467 ft | 429 kts | 38° |
| 2026-04-24 12:56 | 41.35976 | -73.17137 | 22983 ft | 432 kts | 38° |
| 2026-04-24 12:56 | 41.37917 | -73.14053 | 23523 ft | 439 kts | 41° |
| 2026-04-24 12:56 | 41.39665 | -73.10652 | 23942 ft | 451 kts | 48° |
| 2026-04-24 12:56 | 41.41256 | -73.07030 | 24376 ft | 454 kts | 49° |
| 2026-04-24 12:57 | 41.42813 | -73.03433 | 24801 ft | 456 kts | 49° |
| 2026-04-24 12:57 | 41.44401 | -72.99766 | 25214 ft | 458 kts | 49° |
| 2026-04-24 12:57 | 41.46005 | -72.96084 | 25612 ft | 460 kts | 49° |
| 2026-04-24 12:57 | 41.47623 | -72.92389 | 25947 ft | 465 kts | 49° |
| 2026-04-24 12:58 | 41.49265 | -72.88653 | 26263 ft | 468 kts | 49° |
| 2026-04-24 12:58 | 41.50909 | -72.84909 | 26703 ft | 468 kts | 49° |
| 2026-04-24 12:58 | 41.52551 | -72.81161 | 27145 ft | 468 kts | 49° |
| 2026-04-24 12:58 | 41.54197 | -72.77404 | 27513 ft | 470 kts | 49° |
| 2026-04-24 12:59 | 41.55853 | -72.73624 | 27826 ft | 473 kts | 49° |
| 2026-04-24 12:59 | 41.57512 | -72.69831 | 28155 ft | 475 kts | 49° |
| 2026-04-24 12:59 | 41.59182 | -72.66006 | 28479 ft | 477 kts | 49° |
| 2026-04-24 12:59 | 41.60853 | -72.62171 | 28791 ft | 479 kts | 49° |
| 2026-04-24 13:00 | 41.62531 | -72.58318 | 29109 ft | 481 kts | 49° |
| 2026-04-24 13:00 | 41.64217 | -72.54441 | 29309 ft | 484 kts | 49° |
| 2026-04-24 13:00 | 41.65936 | -72.50558 | 29586 ft | 485 kts | 49° |
| 2026-04-24 13:00 | 41.67679 | -72.46695 | 29922 ft | 485 kts | 49° |
| 2026-04-24 13:01 | 41.69427 | -72.42841 | 30195 ft | 485 kts | 49° |
| 2026-04-24 13:01 | 41.71179 | -72.38976 | 30411 ft | 486 kts | 49° |
| 2026-04-24 13:01 | 41.72932 | -72.35094 | 30597 ft | 488 kts | 49° |
| 2026-04-24 13:01 | 41.74683 | -72.31204 | 30824 ft | 488 kts | 49° |
| 2026-04-24 13:02 | 41.76428 | -72.27311 | 31099 ft | 487 kts | 50° |
| 2026-04-24 13:02 | 41.78167 | -72.23421 | 31398 ft | 486 kts | 50° |
| 2026-04-24 13:02 | 41.79901 | -72.19537 | 31628 ft | 486 kts | 50° |
| 2026-04-24 13:02 | 41.81633 | -72.15653 | 31912 ft | 485 kts | 50° |
| 2026-04-24 13:03 | 41.83359 | -72.11778 | 32294 ft | 482 kts | 51° |
| 2026-04-24 13:03 | 41.85069 | -72.07934 | 32656 ft | 479 kts | 51° |
| 2026-04-24 13:03 | 41.86751 | -72.04152 | 32864 ft | 479 kts | 51° |
| 2026-04-24 13:04 | 41.90175 | -71.96445 | 32929 ft | 481 kts | 51° |
| 2026-04-24 13:04 | 41.93584 | -71.88741 | 32953 ft | 479 kts | 51° |
| 2026-04-24 13:05 | 41.97006 | -71.81078 | 32961 ft | 476 kts | 50° |
| 2026-04-24 13:05 | 42.00572 | -71.73610 | 32936 ft | 473 kts | 49° |
| 2026-04-24 13:06 | 42.04150 | -71.66195 | 32932 ft | 472 kts | 49° |
| 2026-04-24 13:06 | 42.07693 | -71.58765 | 32941 ft | 472 kts | 50° |
| 2026-04-24 13:07 | 42.11218 | -71.51310 | 32948 ft | 473 kts | 49° |
| 2026-04-24 13:07 | 42.14744 | -71.43831 | 32948 ft | 473 kts | 50° |
| 2026-04-24 13:08 | 42.18262 | -71.36348 | 32950 ft | 472 kts | 50° |
| 2026-04-24 13:08 | 42.21769 | -71.28875 | 32948 ft | 471 kts | 50° |
| 2026-04-24 13:09 | 42.27014 | -71.17664 | 32996 ft | 470 kts | 50° |
| 2026-04-24 13:09 | 42.30485 | -71.10217 | 32951 ft | 466 kts | 50° |
| 2026-04-24 13:10 | 42.33887 | -71.02876 | 32946 ft | 464 kts | 51° |
| 2026-04-24 13:10 | 42.36650 | -70.94899 | 32950 ft | 475 kts | 63° |
| 2026-04-24 13:11 | 42.38545 | -70.86284 | 32986 ft | 480 kts | 65° |
| 2026-04-24 13:11 | 42.40386 | -70.77585 | 32972 ft | 482 kts | 65° |
| 2026-04-24 13:12 | 42.42248 | -70.68858 | 32942 ft | 483 kts | 65° |
| 2026-04-24 13:12 | 42.44121 | -70.60136 | 32939 ft | 483 kts | 65° |
| 2026-04-24 13:13 | 42.45994 | -70.51402 | 32988 ft | 484 kts | 64° |
| 2026-04-24 13:13 | 42.47871 | -70.42626 | 32947 ft | 486 kts | 64° |
| 2026-04-24 13:14 | 42.49742 | -70.33828 | 32943 ft | 487 kts | 64° |
| 2026-04-24 13:14 | 42.51608 | -70.25010 | 32939 ft | 486 kts | 65° |
| 2026-04-24 13:15 | 42.53464 | -70.16203 | 32977 ft | 486 kts | 65° |
| 2026-04-24 13:15 | 42.55318 | -70.07377 | 32944 ft | 486 kts | 65° |
| 2026-04-24 13:16 | 42.57162 | -69.98553 | 32940 ft | 487 kts | 65° |
| 2026-04-24 13:16 | 42.59002 | -69.89718 | 32937 ft | 487 kts | 65° |
| 2026-04-24 13:17 | 42.60841 | -69.80855 | 32958 ft | 491 kts | 65° |
| 2026-04-24 13:17 | 42.62687 | -69.71918 | 32943 ft | 492 kts | 65° |
| 2026-04-24 13:18 | 42.64520 | -69.62982 | 32925 ft | 491 kts | 65° |
| 2026-04-24 13:18 | 42.66344 | -69.54059 | 32929 ft | 490 kts | 65° |
| 2026-04-24 13:19 | 42.68153 | -69.45186 | 32930 ft | 492 kts | 66° |
| 2026-04-24 13:19 | 42.69973 | -69.36217 | 32928 ft | 493 kts | 66° |
| 2026-04-24 13:20 | 42.71789 | -69.27222 | 32936 ft | 494 kts | 66° |
| 2026-04-24 13:20 | 42.73598 | -69.18217 | 32965 ft | 494 kts | 66° |
| 2026-04-24 13:21 | 42.75406 | -69.09182 | 32928 ft | 495 kts | 67° |
| 2026-04-24 13:21 | 42.77211 | -69.00124 | 32909 ft | 496 kts | 67° |
| 2026-04-24 13:22 | 42.79011 | -68.91045 | 32914 ft | 497 kts | 67° |
| 2026-04-24 13:22 | 42.80807 | -68.81946 | 32929 ft | 499 kts | 68° |
| 2026-04-24 13:23 | 42.82603 | -68.72808 | 32919 ft | 501 kts | 68° |
| 2026-04-24 13:23 | 42.84399 | -68.63628 | 32907 ft | 502 kts | 68° |
| 2026-04-24 13:24 | 42.86189 | -68.54429 | 32908 ft | 502 kts | 68° |
| 2026-04-24 13:24 | 42.87977 | -68.45203 | 32908 ft | 505 kts | 68° |
| 2026-04-24 13:25 | 42.89763 | -68.35939 | 32904 ft | 505 kts | 68° |
| 2026-04-24 13:25 | 42.91541 | -68.26668 | 32894 ft | 505 kts | 69° |
| 2026-04-24 13:26 | 42.93309 | -68.17406 | 32894 ft | 504 kts | 69° |